createdAt,value
2022-08-23T00:02:28.573Z,21.68
2022-08-23T00:05:09.301Z,21.65
2022-08-23T00:07:40.997Z,21.63
2022-08-23T00:10:12.445Z,21.59
2022-08-23T00:12:41.453Z,21.55
2022-08-23T00:15:13.365Z,21.51
2022-08-23T00:17:43.897Z,21.49
2022-08-23T00:20:16.383Z,21.43
2022-08-23T00:22:45.632Z,21.41
2022-08-23T00:25:15.361Z,21.39
2022-08-23T00:27:44.016Z,21.36
2022-08-23T00:30:14.813Z,21.34
2022-08-23T00:32:45.360Z,21.32
2022-08-23T00:35:26.678Z,21.28
2022-08-23T00:38:14.656Z,21.24
2022-08-23T00:40:52.211Z,21.16
2022-08-23T00:43:45.610Z,21.10
2022-08-23T00:46:45.341Z,21.02
2022-08-23T00:49:18.879Z,20.94
2022-08-23T00:51:54.221Z,20.88
2022-08-23T00:54:25.243Z,20.79
2022-08-23T00:56:54.588Z,20.71
2022-08-23T00:59:24.237Z,20.67
2022-08-23T01:01:53.246Z,20.62
2022-08-23T01:04:23.183Z,20.61
2022-08-23T01:07:00.412Z,20.58
2022-08-23T01:09:29.149Z,20.57
2022-08-23T01:12:04.977Z,20.54
2022-08-23T01:14:39.126Z,20.52
2022-08-23T01:17:16.582Z,20.51
2022-08-23T01:19:52.929Z,20.50
2022-08-23T01:22:28.365Z,20.49
2022-08-23T01:25:06.536Z,20.49
2022-08-23T01:27:40.454Z,20.44
2022-08-23T01:30:13.216Z,20.41
2022-08-23T01:32:48.861Z,20.37
2022-08-23T01:37:48.152Z,20.37
2022-08-23T01:40:18.148Z,20.38
2022-08-23T01:42:47.407Z,20.37
2022-08-23T01:45:17.102Z,20.34
2022-08-23T01:47:46.192Z,20.28
2022-08-23T01:50:15.269Z,20.25
2022-08-23T01:52:47.064Z,20.22
2022-08-23T01:55:20.110Z,20.17
2022-08-23T01:57:54.045Z,20.13
2022-08-23T02:00:26.204Z,20.08
2022-08-23T02:02:55.432Z,20.02
2022-08-23T02:05:24.360Z,19.95
2022-08-23T02:07:53.504Z,19.92
2022-08-23T02:10:24.097Z,19.88
2022-08-23T02:12:52.888Z,19.83
2022-08-23T02:15:23.565Z,19.81
2022-08-23T02:17:53.017Z,19.77
2022-08-23T02:20:22.435Z,19.72
2022-08-23T02:22:51.364Z,19.71
2022-08-23T02:25:20.072Z,19.68
2022-08-23T02:27:49.830Z,19.64
2022-08-23T02:30:18.652Z,19.63
2022-08-23T02:32:47.324Z,19.59
2022-08-23T02:35:16.926Z,19.58
2022-08-23T02:37:45.392Z,19.54
2022-08-23T02:40:14.221Z,19.51
2022-08-23T02:42:43.574Z,19.48
2022-08-23T02:45:14.261Z,19.44
2022-08-23T02:47:48.018Z,19.40
2022-08-23T02:50:22.085Z,19.34
2022-08-23T02:52:50.763Z,19.31
2022-08-23T02:55:19.385Z,19.28
2022-08-23T02:57:48.235Z,19.24
2022-08-23T03:00:19.500Z,19.23
2022-08-23T03:02:48.697Z,19.18
2022-08-23T03:05:18.389Z,19.11
2022-08-23T03:07:46.997Z,19.05
2022-08-23T03:10:16.368Z,18.97
2022-08-23T03:12:50.024Z,18.89
2022-08-23T03:15:20.081Z,18.85
2022-08-23T03:17:49.225Z,18.83
2022-08-23T03:20:17.689Z,18.82
2022-08-23T03:22:54.895Z,18.78
2022-08-23T03:25:26.875Z,18.72
2022-08-23T03:28:07.388Z,18.66
2022-08-23T03:30:40.627Z,18.61
2022-08-23T03:33:10.683Z,18.59
2022-08-23T03:35:39.660Z,18.58
2022-08-23T03:38:11.193Z,18.58
2022-08-23T03:40:39.824Z,18.57
2022-08-23T03:43:08.610Z,18.57
2022-08-23T03:45:40.333Z,18.55
2022-08-23T03:48:10.302Z,18.53
2022-08-23T03:50:39.832Z,18.51
2022-08-23T03:53:09.081Z,18.48
2022-08-23T03:55:42.437Z,18.43
2022-08-23T03:58:14.603Z,18.38
2022-08-23T04:00:44.500Z,18.35
2022-08-23T04:03:13.155Z,18.32
2022-08-23T04:05:57.843Z,18.29
2022-08-23T04:08:28.055Z,18.28
2022-08-23T04:11:03.275Z,18.27
2022-08-23T04:13:31.987Z,18.25
2022-08-23T04:16:05.817Z,18.24
2022-08-23T04:18:36.628Z,18.22
2022-08-23T04:21:10.957Z,18.18
2022-08-23T04:23:40.562Z,18.13
2022-08-23T04:26:09.632Z,18.10
2022-08-23T04:28:39.621Z,18.06
2022-08-23T04:31:09.700Z,18.02
2022-08-23T04:33:41.048Z,17.99
2022-08-23T04:36:12.980Z,17.97
2022-08-23T04:38:41.541Z,17.95
2022-08-23T04:41:30.099Z,17.94
2022-08-23T04:44:00.139Z,17.95
2022-08-23T04:46:31.450Z,17.97
2022-08-23T04:49:02.703Z,17.98
2022-08-23T04:51:31.309Z,17.99
2022-08-23T04:53:59.759Z,17.99
2022-08-23T04:56:57.401Z,18.00
2022-08-23T04:59:26.136Z,18.03
2022-08-23T05:01:55.884Z,18.04
2022-08-23T05:04:24.462Z,18.06
2022-08-23T05:06:53.205Z,18.10
2022-08-23T05:09:25.057Z,18.13
2022-08-23T05:11:53.636Z,18.14
2022-08-23T05:14:23.543Z,18.16
2022-08-23T05:16:52.550Z,18.19
2022-08-23T05:19:24.350Z,18.19
2022-08-23T05:21:56.913Z,18.20
2022-08-23T05:24:32.237Z,18.22
2022-08-23T05:27:01.585Z,18.24
2022-08-23T05:29:31.262Z,18.29
2022-08-23T05:31:59.999Z,18.33
2022-08-23T05:34:29.937Z,18.41
2022-08-23T05:36:59.849Z,18.45
2022-08-23T05:39:41.455Z,18.52
2022-08-23T05:42:16.999Z,18.54
2022-08-23T05:44:46.591Z,18.53
2022-08-23T05:47:24.611Z,18.58
2022-08-23T05:50:24.128Z,18.62
2022-08-23T05:52:52.962Z,18.67
2022-08-23T05:55:22.277Z,18.71
2022-08-23T05:58:23.037Z,18.76
2022-08-23T06:00:51.889Z,18.79
2022-08-23T06:03:20.836Z,18.84
2022-08-23T06:05:51.025Z,18.91
2022-08-23T06:08:19.429Z,18.96
2022-08-23T06:10:47.840Z,19.02
2022-08-23T06:13:24.306Z,19.08
2022-08-23T06:15:52.721Z,19.12
2022-08-23T06:18:21.192Z,19.18
2022-08-23T06:21:02.383Z,19.23
2022-08-23T06:23:41.886Z,19.29
2022-08-23T06:26:16.726Z,19.35
2022-08-23T06:28:50.354Z,19.41
2022-08-23T06:31:40.862Z,19.48
2022-08-23T06:34:18.501Z,19.54
2022-08-23T06:37:18.021Z,19.61
2022-08-23T06:40:27.711Z,19.69
2022-08-23T06:43:01.406Z,19.77
2022-08-23T06:45:58.314Z,19.83
2022-08-23T06:48:27.082Z,19.90
2022-08-23T06:50:56.023Z,19.98
2022-08-23T06:53:34.073Z,20.05
2022-08-23T06:56:35.326Z,20.16
2022-08-23T06:59:08.278Z,20.24
2022-08-23T07:02:05.389Z,20.37
2022-08-23T07:04:54.223Z,20.52
2022-08-23T07:07:44.178Z,20.78
2022-08-23T07:10:16.299Z,21.25
2022-08-23T07:12:45.629Z,21.95
2022-08-23T07:15:14.984Z,22.66
2022-08-23T07:17:46.151Z,23.34
2022-08-23T07:20:15.545Z,23.98
2022-08-23T07:22:45.865Z,24.56
2022-08-23T07:25:18.143Z,25.12
2022-08-23T07:27:50.055Z,25.62
2022-08-23T07:30:22.122Z,26.04
2022-08-23T07:32:52.680Z,26.43
2022-08-23T07:35:23.643Z,26.74
2022-08-23T07:37:55.439Z,26.91
2022-08-23T07:40:27.753Z,27.00
2022-08-23T07:42:59.723Z,27.11
2022-08-23T07:45:30.161Z,27.17
2022-08-23T07:48:03.004Z,27.26
2022-08-23T07:50:37.776Z,27.40
2022-08-23T07:53:37.710Z,27.54
2022-08-23T07:56:13.759Z,27.85
2022-08-23T07:58:54.677Z,28.19
2022-08-23T08:01:49.925Z,28.56
2022-08-23T08:04:18.434Z,28.85
2022-08-23T08:07:10.609Z,29.06
2022-08-23T08:09:44.150Z,29.29
2022-08-23T08:12:14.033Z,29.44
2022-08-23T08:14:44.684Z,29.56
2022-08-23T08:17:15.900Z,29.68
2022-08-23T08:20:21.726Z,29.88
2022-08-23T08:23:30.132Z,30.13
2022-08-23T08:26:16.048Z,30.35
2022-08-23T08:28:56.250Z,30.48
2022-08-23T08:31:27.459Z,30.50
2022-08-23T08:33:57.362Z,30.51
2022-08-23T08:36:33.565Z,30.59
2022-08-23T08:39:02.871Z,30.77
2022-08-23T08:42:04.498Z,30.92
2022-08-23T08:44:46.022Z,31.17
2022-08-23T08:47:31.407Z,31.30
2022-08-23T08:50:10.738Z,31.37
2022-08-23T08:52:44.965Z,31.63
2022-08-23T08:55:26.207Z,31.84
2022-08-23T08:57:56.494Z,31.98
2022-08-23T09:00:32.542Z,32.12
2022-08-23T09:03:05.436Z,32.32
2022-08-23T09:05:39.571Z,32.47
2022-08-23T09:08:27.780Z,32.70
2022-08-23T09:11:06.509Z,33.05
2022-08-23T09:14:18.503Z,33.34
2022-08-23T09:16:54.254Z,33.39
2022-08-23T09:19:26.198Z,33.51
2022-08-23T09:22:00.165Z,33.77
2022-08-23T09:24:29.040Z,33.98
2022-08-23T09:27:12.637Z,33.92
2022-08-23T09:29:53.388Z,33.89
2022-08-23T09:32:34.540Z,34.11
2022-08-23T09:35:17.890Z,34.53
2022-08-23T09:38:00.553Z,34.87
2022-08-23T09:40:41.079Z,35.18
2022-08-23T09:43:16.310Z,35.35
2022-08-23T09:45:58.884Z,35.57
2022-08-23T09:48:40.574Z,35.70
2022-08-23T09:51:21.220Z,35.83
2022-08-23T09:54:03.622Z,35.98
2022-08-23T09:56:37.928Z,36.26
2022-08-23T09:59:33.616Z,36.52
2022-08-23T10:02:18.425Z,36.62
2022-08-23T10:05:02.027Z,36.73
2022-08-23T10:07:42.458Z,36.55
2022-08-23T10:10:30.227Z,36.44
2022-08-23T10:13:03.423Z,36.48
2022-08-23T10:15:49.327Z,36.33
2022-08-23T10:18:33.469Z,36.30
2022-08-23T10:21:08.927Z,36.17
2022-08-23T10:23:51.881Z,36.11
2022-08-23T10:26:28.385Z,36.01
2022-08-23T10:29:24.808Z,35.95
2022-08-23T10:32:04.609Z,35.94
2022-08-23T10:34:54.133Z,36.04
2022-08-23T10:37:46.789Z,36.03
2022-08-23T10:40:23.674Z,36.04
2022-08-23T10:43:11.416Z,35.88
2022-08-23T10:45:44.347Z,35.74
2022-08-23T10:48:29.470Z,35.79
2022-08-23T10:51:03.733Z,35.97
2022-08-23T10:53:46.185Z,36.07
2022-08-23T10:56:19.212Z,36.04
2022-08-23T10:58:57.999Z,36.11
2022-08-23T11:01:35.111Z,36.26
2022-08-23T11:04:09.983Z,36.24
2022-08-23T11:06:59.111Z,36.27
2022-08-23T11:09:53.732Z,36.63
2022-08-23T11:12:31.891Z,37.17
2022-08-23T11:15:20.409Z,37.42
2022-08-23T11:18:08.624Z,37.37
2022-08-23T11:21:08.321Z,37.60
2022-08-23T11:23:49.479Z,37.86
2022-08-23T11:27:07.421Z,38.02
2022-08-23T11:29:43.562Z,37.90
2022-08-23T11:32:45.390Z,37.94
2022-08-23T11:35:43.336Z,37.96
2022-08-23T11:38:15.475Z,38.14
2022-08-23T11:41:23.508Z,38.16
2022-08-23T11:44:28.975Z,37.95
2022-08-23T11:47:06.688Z,38.02
2022-08-23T11:50:12.959Z,37.96
2022-08-23T11:53:47.275Z,37.85
2022-08-23T11:56:46.710Z,38.12
2022-08-23T11:59:42.846Z,38.13
2022-08-23T12:02:47.474Z,37.84
2022-08-23T12:05:32.443Z,37.94
2022-08-23T12:08:51.042Z,38.43
2022-08-23T12:11:21.508Z,38.92
2022-08-23T12:14:01.626Z,39.23
2022-08-23T12:16:44.253Z,39.34
2022-08-23T12:19:35.855Z,39.68
2022-08-23T12:22:13.746Z,39.98
2022-08-23T12:24:46.996Z,40.19
2022-08-23T12:27:30.084Z,40.31
2022-08-23T12:30:08.511Z,40.44
2022-08-23T12:32:48.782Z,40.38
2022-08-23T12:35:36.214Z,40.15
2022-08-23T12:38:12.064Z,40.07
2022-08-23T12:40:44.741Z,39.76
2022-08-23T12:43:22.949Z,39.35
2022-08-23T12:45:56.240Z,39.22
2022-08-23T12:48:29.824Z,39.29
2022-08-23T12:51:01.100Z,39.51
2022-08-23T12:53:34.500Z,39.75
2022-08-23T12:56:07.816Z,39.98
2022-08-23T12:58:40.434Z,40.12
2022-08-23T13:01:21.468Z,40.27
2022-08-23T13:03:57.302Z,40.50
2022-08-23T13:06:32.520Z,40.71
2022-08-23T13:09:07.108Z,40.77
2022-08-23T13:11:37.885Z,40.49
2022-08-23T13:14:25.609Z,40.35
2022-08-23T13:16:54.982Z,40.53
2022-08-23T13:19:30.515Z,40.48
2022-08-23T13:22:13.788Z,40.79
2022-08-23T13:24:44.991Z,41.03
2022-08-23T13:27:23.881Z,41.27
2022-08-23T13:29:56.471Z,41.60
2022-08-23T13:32:41.757Z,41.87
2022-08-23T13:35:36.752Z,41.90
2022-08-23T13:38:21.590Z,41.76
2022-08-23T13:41:06.115Z,41.41
2022-08-23T13:43:40.873Z,41.43
2022-08-23T13:46:17.982Z,41.32
2022-08-23T13:48:59.328Z,41.29
2022-08-23T13:51:37.057Z,41.58
2022-08-23T13:54:08.953Z,41.92
2022-08-23T13:56:42.139Z,42.32
2022-08-23T13:59:28.142Z,42.56
2022-08-23T14:02:02.554Z,42.51
2022-08-23T14:04:31.212Z,42.31
2022-08-23T14:07:01.064Z,42.03
2022-08-23T14:09:29.577Z,41.99
2022-08-23T14:12:03.101Z,41.92
2022-08-23T14:14:34.589Z,41.89
2022-08-23T14:17:03.451Z,41.97
2022-08-23T14:22:21.989Z,41.66
2022-08-23T14:24:50.326Z,41.79
2022-08-23T14:27:18.729Z,42.11
2022-08-23T14:29:47.149Z,42.28
2022-08-23T14:32:15.613Z,42.30
2022-08-23T14:34:44.079Z,42.31
2022-08-23T14:40:02.486Z,42.37
2022-08-23T14:42:31.738Z,42.34
2022-08-23T14:45:00.190Z,42.44
2022-08-23T14:47:28.872Z,42.43
2022-08-23T14:49:57.569Z,42.50
2022-08-23T14:52:26.026Z,42.43
2022-08-23T14:54:54.483Z,42.67
2022-08-23T14:57:24.321Z,42.94
2022-08-23T14:59:52.667Z,43.05
2022-08-23T15:02:26.308Z,43.19
2022-08-23T15:04:55.715Z,43.22
2022-08-23T15:07:24.640Z,43.17
2022-08-23T15:09:55.550Z,43.13
2022-08-23T15:15:21.743Z,42.73
2022-08-23T15:17:54.192Z,42.77
2022-08-23T15:20:25.985Z,42.75
2022-08-23T15:22:55.395Z,42.62
2022-08-23T15:25:25.822Z,42.55
2022-08-23T15:27:57.008Z,42.41
2022-08-23T15:30:26.118Z,42.24
2022-08-23T15:32:58.700Z,41.88
2022-08-23T15:35:28.547Z,41.40
2022-08-23T15:37:58.349Z,41.10
2022-08-23T15:40:27.212Z,41.11
2022-08-23T15:42:57.165Z,41.08
2022-08-23T15:45:25.570Z,41.02
2022-08-23T15:47:56.822Z,40.91
2022-08-23T15:50:28.829Z,40.84
2022-08-23T15:52:57.273Z,40.77
2022-08-23T15:55:29.188Z,40.65
2022-08-23T15:57:59.244Z,40.64
2022-08-23T16:00:29.280Z,40.48
2022-08-23T16:03:18.354Z,40.29
2022-08-23T16:05:50.201Z,40.22
2022-08-23T16:08:23.732Z,40.24
2022-08-23T16:10:52.451Z,40.34
2022-08-23T16:13:23.569Z,40.31
2022-08-23T16:15:52.540Z,40.27
2022-08-23T16:18:21.270Z,40.22
2022-08-23T16:20:49.773Z,40.29
2022-08-23T16:23:23.527Z,40.32
2022-08-23T16:25:55.112Z,40.36
2022-08-23T16:28:27.809Z,40.35
2022-08-23T16:30:56.274Z,40.07
2022-08-23T16:33:24.697Z,39.85
2022-08-23T16:35:53.241Z,39.71
2022-08-23T16:38:21.661Z,39.54
2022-08-23T16:40:50.310Z,39.39
2022-08-23T16:43:18.739Z,39.12
2022-08-23T16:45:48.509Z,38.82
2022-08-23T16:48:17.415Z,38.67
2022-08-23T16:50:46.358Z,38.66
2022-08-23T16:53:15.697Z,38.69
2022-08-23T16:55:44.544Z,38.75
2022-08-23T16:58:13.003Z,38.79
2022-08-23T17:00:41.380Z,38.81
2022-08-23T17:03:11.180Z,38.72
2022-08-23T17:05:39.561Z,38.44
2022-08-23T17:08:08.197Z,37.99
2022-08-23T17:10:36.548Z,37.52
2022-08-23T17:13:06.149Z,37.08
2022-08-23T17:15:37.645Z,36.51
2022-08-23T17:18:06.867Z,36.02
2022-08-23T17:20:39.294Z,35.75
2022-08-23T17:23:09.360Z,35.67
2022-08-23T17:25:41.604Z,35.55
2022-08-23T17:28:10.006Z,35.44
2022-08-23T17:30:38.452Z,35.43
2022-08-23T17:33:08.359Z,35.42
2022-08-23T17:35:38.429Z,35.33
2022-08-23T17:38:08.434Z,35.16
2022-08-23T17:40:41.166Z,34.91
2022-08-23T17:43:10.067Z,34.67
2022-08-23T17:45:43.601Z,34.39
2022-08-23T17:48:12.716Z,34.13
2022-08-23T17:50:43.628Z,33.85
2022-08-23T17:53:13.553Z,33.57
2022-08-23T17:55:42.148Z,33.33
2022-08-23T17:58:12.091Z,33.11
2022-08-23T18:00:41.753Z,32.87
2022-08-23T18:03:10.186Z,32.65
2022-08-23T18:05:42.720Z,32.44
2022-08-23T18:08:11.580Z,32.22
2022-08-23T18:10:40.528Z,32.02
2022-08-23T18:13:08.974Z,31.81
2022-08-23T18:15:37.618Z,31.61
2022-08-23T18:18:06.516Z,31.43
2022-08-23T18:20:35.449Z,31.25
2022-08-23T18:23:05.887Z,31.06
2022-08-23T18:25:34.659Z,30.90
2022-08-23T18:28:09.159Z,30.75
2022-08-23T18:30:38.887Z,30.53
2022-08-23T18:33:12.416Z,30.42
2022-08-23T18:35:42.754Z,30.29
2022-08-23T18:38:13.737Z,30.20
2022-08-23T18:40:47.341Z,30.08
2022-08-23T18:43:19.052Z,29.95
2022-08-23T18:45:49.659Z,29.79
2022-08-23T18:48:19.549Z,29.64
2022-08-23T18:50:48.740Z,29.52
2022-08-23T18:53:20.959Z,29.41
2022-08-23T18:55:50.042Z,29.31
2022-08-23T18:58:19.060Z,29.21
2022-08-23T19:00:50.599Z,29.09
2022-08-23T19:03:19.485Z,28.98
2022-08-23T19:05:48.179Z,28.88
2022-08-23T19:08:19.385Z,28.76
2022-08-23T19:10:48.408Z,28.63
2022-08-23T19:13:17.017Z,28.49
2022-08-23T19:15:45.468Z,28.32
2022-08-23T19:18:14.524Z,28.12
2022-08-23T19:20:43.392Z,27.92
2022-08-23T19:23:12.069Z,27.79
2022-08-23T19:25:45.266Z,27.67
2022-08-23T19:28:14.633Z,27.57
2022-08-23T19:30:43.706Z,27.49
2022-08-23T19:33:12.301Z,27.42
2022-08-23T19:35:41.004Z,27.38
2022-08-23T19:38:09.550Z,27.30
2022-08-23T19:40:37.972Z,27.21
2022-08-23T19:43:08.078Z,27.08
2022-08-23T19:45:37.670Z,26.96
2022-08-23T19:48:06.622Z,26.83
2022-08-23T19:50:35.184Z,26.74
2022-08-23T19:53:03.822Z,26.68
2022-08-23T19:55:32.570Z,26.61
2022-08-23T19:58:01.303Z,26.54
2022-08-23T20:00:31.904Z,26.42
2022-08-23T20:03:00.847Z,26.28
2022-08-23T20:05:29.557Z,26.15
2022-08-23T20:07:57.935Z,26.06
2022-08-23T20:10:26.339Z,25.99
2022-08-23T20:12:55.008Z,25.91
2022-08-23T20:15:23.386Z,25.84
2022-08-23T20:17:53.346Z,25.79
2022-08-23T20:20:22.032Z,25.76
2022-08-23T20:23:07.663Z,25.70
2022-08-23T20:25:36.620Z,25.65
2022-08-23T20:28:08.198Z,25.60
2022-08-23T20:30:37.520Z,25.55
2022-08-23T20:33:07.305Z,25.48
2022-08-23T20:35:35.716Z,25.45
2022-08-23T20:38:04.522Z,25.41
2022-08-23T20:40:33.173Z,25.38
2022-08-23T20:43:01.742Z,25.34
2022-08-23T20:45:30.538Z,25.27
2022-08-23T20:47:58.908Z,25.19
2022-08-23T20:50:28.794Z,25.12
2022-08-23T20:52:57.282Z,25.05
2022-08-23T20:55:25.728Z,24.99
2022-08-23T20:57:54.120Z,24.93
2022-08-23T21:00:22.754Z,24.90
2022-08-23T21:02:51.128Z,24.84
2022-08-23T21:05:19.706Z,24.77
2022-08-23T21:07:49.507Z,24.70
2022-08-23T21:10:18.010Z,24.64
2022-08-23T21:12:46.378Z,24.59
2022-08-23T21:15:15.078Z,24.54
2022-08-23T21:17:43.452Z,24.49
2022-08-23T21:20:16.201Z,24.46
2022-08-23T21:22:44.647Z,24.43
2022-08-23T21:25:14.565Z,24.37
2022-08-23T21:27:43.628Z,24.30
2022-08-23T21:30:13.240Z,24.25
2022-08-23T21:32:41.643Z,24.19
2022-08-23T21:35:13.840Z,24.13
2022-08-23T21:37:42.304Z,24.07
2022-08-23T21:40:14.048Z,24.02
2022-08-23T21:42:42.497Z,23.98
2022-08-23T21:45:11.522Z,23.95
2022-08-23T21:47:40.193Z,23.93
2022-08-23T21:50:09.324Z,23.88
2022-08-23T21:52:37.698Z,23.85
2022-08-23T21:55:07.524Z,23.82
2022-08-23T21:57:37.435Z,23.78
2022-08-23T22:00:10.869Z,23.77
2022-08-23T22:02:41.145Z,23.75
2022-08-23T22:05:10.013Z,23.73
2022-08-23T22:07:39.407Z,23.71
2022-08-23T22:10:10.576Z,23.69
2022-08-23T22:12:41.326Z,23.67
2022-08-23T22:15:11.164Z,23.65
2022-08-23T22:17:39.533Z,23.63
2022-08-23T22:20:10.493Z,23.61
2022-08-23T22:22:39.221Z,23.60
2022-08-23T22:25:09.237Z,23.59
2022-08-23T22:27:39.383Z,23.57
2022-08-23T22:30:09.532Z,23.55
2022-08-23T22:32:38.247Z,23.55
2022-08-23T22:35:08.784Z,23.54
2022-08-23T22:37:43.048Z,23.52
2022-08-23T22:40:22.870Z,23.48
2022-08-23T22:42:52.820Z,23.45
2022-08-23T22:45:22.918Z,23.41
2022-08-23T22:47:51.372Z,23.36
2022-08-23T22:50:19.899Z,23.32
2022-08-23T22:52:48.635Z,23.28
2022-08-23T22:55:17.258Z,23.25
2022-08-23T22:57:45.690Z,23.22
2022-08-23T23:00:16.512Z,23.20
2022-08-23T23:02:44.980Z,23.17
2022-08-23T23:05:13.501Z,23.15
2022-08-23T23:07:59.545Z,23.11
2022-08-23T23:10:28.083Z,23.07
2022-08-23T23:12:56.711Z,23.06
2022-08-23T23:15:26.518Z,23.03
2022-08-23T23:17:54.868Z,23.01
2022-08-23T23:20:39.092Z,22.98
2022-08-23T23:23:12.815Z,22.94
2022-08-23T23:25:42.180Z,22.90
2022-08-23T23:28:10.933Z,22.85
2022-08-23T23:30:41.714Z,22.80
2022-08-23T23:33:10.284Z,22.75
2022-08-23T23:35:39.234Z,22.72
2022-08-23T23:38:08.281Z,22.68
2022-08-23T23:40:37.086Z,22.66
2022-08-23T23:43:05.812Z,22.63
2022-08-23T23:45:38.368Z,22.58
2022-08-23T23:48:08.686Z,22.52
2022-08-23T23:50:42.601Z,22.47
2022-08-23T23:53:13.964Z,22.40
2022-08-23T23:55:43.120Z,22.31
2022-08-23T23:58:12.582Z,22.25
